Time;durP1;ratioP1;P1;durP2;ratioP2;P2;SDS_P1;SDS_P2;PMS_P1;PMS_P2;Temp;Humidity;BMP_temperature;BMP_pressure;BME280_temperature;BME280_humidity;BME280_pressure;Samples;Min_cycle;Max_cycle;Signal;HPM_P1;HPM_P2
2022/04/01 00:01:04;;;;;;;12.98;8.60;;;8.80;74.30;;;;;;7395414;19;20420;-74
2022/04/01 00:03:34;;;;;;;10.88;8.35;;;8.70;74.60;;;;;;7398160;19;20669;-76
2022/04/01 00:06:06;;;;;;;11.40;7.28;;;8.60;75.50;;;;;;7389644;19;20175;-75
2022/04/01 00:08:43;;;;;;;11.95;7.68;;;8.70;75.20;;;;;;7395405;19;20175;-74
2022/04/01 00:11:15;;;;;;;13.00;8.77;;;8.60;75.30;;;;;;7396673;19;20157;-76
2022/04/01 00:13:45;;;;;;;13.25;8.77;;;8.50;77.00;;;;;;7398289;19;20422;-74
2022/04/01 00:16:16;;;;;;;12.45;8.32;;;8.50;78.00;;;;;;7404448;19;20128;-75
2022/04/01 00:18:45;;;;;;;13.75;9.45;;;8.40;77.90;;;;;;7404916;19;20132;-75
2022/04/01 00:21:15;;;;;;;11.15;7.60;;;8.50;78.70;;;;;;7400303;19;20528;-76
2022/04/01 00:23:47;;;;;;;12.35;8.50;;;8.40;77.10;;;;;;7403005;19;20132;-74
2022/04/01 00:26:16;;;;;;;12.95;7.90;;;8.30;76.70;;;;;;7404130;19;20120;-75
2022/04/01 00:28:46;;;;;;;10.23;8.02;;;8.10;77.60;;;;;;7413172;19;20124;-75
2022/04/01 00:31:18;;;;;;;10.70;6.97;;;8.10;79.90;;;;;;7412408;19;20193;-76
2022/04/01 00:33:48;;;;;;;9.75;7.75;;;8.10;78.90;;;;;;7411037;19;20583;-77
2022/04/01 00:36:19;;;;;;;11.23;8.13;;;8.30;78.70;;;;;;7409305;19;20175;-76
2022/04/01 00:38:52;;;;;;;10.77;7.75;;;8.40;78.60;;;;;;7414437;19;20124;-76
2022/04/01 00:41:24;;;;;;;10.50;7.80;;;8.40;77.70;;;;;;7411775;19;20134;-76
2022/04/01 00:44:16;;;;;;;9.43;7.97;;;8.20;79.20;;;;;;7411572;19;20151;-75
2022/04/01 00:46:50;;;;;;;11.80;8.50;;;8.20;79.40;;;;;;7410380;19;20139;-77
2022/04/01 00:49:23;;;;;;;12.68;8.02;;;8.20;79.30;;;;;;7400210;19;20514;-71
2022/04/01 00:51:57;;;;;;;9.88;7.50;;;8.30;79.80;;;;;;7385673;19;20139;-71
2022/04/01 00:54:29;;;;;;;10.25;7.40;;;8.30;79.50;;;;;;7397229;19;20123;-71
2022/04/01 00:57:02;;;;;;;13.13;8.20;;;8.30;78.00;;;;;;7391894;19;20181;-71
2022/04/01 00:59:32;;;;;;;12.35;9.00;;;8.20;79.80;;;;;;7396979;19;20120;-71
2022/04/01 01:02:02;;;;;;;12.27;8.15;;;8.30;79.10;;;;;;7392098;19;20128;-71
2022/04/01 01:04:33;;;;;;;11.45;8.43;;;8.30;78.40;;;;;;7393785;19;20135;-71
2022/04/01 01:07:06;;;;;;;10.00;7.35;;;8.30;78.50;;;;;;7387940;19;20146;-71
2022/04/01 01:09:38;;;;;;;13.00;8.52;;;8.30;78.20;;;;;;7397086;19;20131;-71
2022/04/01 01:12:13;;;;;;;10.48;7.40;;;8.30;77.90;;;;;;7391838;19;20190;-70
2022/04/01 01:14:44;;;;;;;10.25;6.95;;;8.20;78.80;;;;;;7399526;19;21160;-71
2022/04/01 01:17:15;;;;;;;10.13;7.10;;;8.20;77.70;;;;;;7384779;19;20157;-71
2022/04/01 01:19:46;;;;;;;8.55;6.55;;;8.10;76.50;;;;;;7387553;19;20174;-71
2022/04/01 01:22:19;;;;;;;10.55;7.05;;;8.10;78.80;;;;;;7371300;19;20135;-71
2022/04/01 01:24:51;;;;;;;10.60;6.63;;;8.10;78.20;;;;;;7389871;19;20630;-70
2022/04/01 01:27:23;;;;;;;8.52;6.38;;;8.00;77.50;;;;;;7385406;19;20432;-71
2022/04/01 01:29:55;;;;;;;11.45;6.85;;;8.00;79.10;;;;;;7393802;19;20757;-71
2022/04/01 01:32:29;;;;;;;10.48;7.03;;;8.10;79.00;;;;;;7396404;19;20140;-71
2022/04/01 01:34:59;;;;;;;9.18;6.05;;;8.20;78.90;;;;;;7391366;19;20124;-72
2022/04/01 01:37:28;;;;;;;10.70;7.78;;;8.20;77.60;;;;;;7391351;19;20140;-71
2022/04/01 01:40:03;;;;;;;11.48;7.20;;;8.10;77.90;;;;;;7398481;19;20146;-76
2022/04/01 01:42:32;;;;;;;9.15;6.97;;;8.20;78.50;;;;;;7422930;19;20215;-76
2022/04/01 01:45:05;;;;;;;8.73;6.43;;;8.20;78.70;;;;;;7424248;19;20140;-76
2022/04/01 01:47:34;;;;;;;8.48;7.13;;;8.20;76.40;;;;;;7425390;19;20135;-76
2022/04/01 01:55:33;;;;;;;9.48;7.20;;;8.10;76.70;;;;;;7421887;19;20179;-76
2022/04/01 01:58:06;;;;;;;10.95;7.28;;;8.10;77.20;;;;;;7422206;19;20156;-76
2022/04/01 02:00:36;;;;;;;9.95;7.40;;;8.00;77.60;;;;;;7413645;19;20139;-77
2022/04/01 02:03:11;;;;;;;9.75;7.25;;;8.00;77.50;;;;;;7407502;19;20186;-76
2022/04/01 02:05:50;;;;;;;9.18;6.80;;;8.00;77.80;;;;;;7408201;19;20132;-76
2022/04/01 02:08:19;;;;;;;11.95;8.98;;;8.10;77.70;;;;;;7409260;19;20116;-76
2022/04/01 02:10:51;;;;;;;11.25;8.05;;;8.10;77.00;;;;;;7407761;19;20156;-76
2022/04/01 02:13:21;;;;;;;9.48;7.65;;;8.00;77.50;;;;;;7409070;19;20128;-76
2022/04/01 02:15:55;;;;;;;12.48;8.38;;;8.10;78.10;;;;;;7401268;19;20142;-76
2022/04/01 02:18:27;;;;;;;8.80;6.90;;;7.90;78.20;;;;;;7401313;19;20131;-77
2022/04/01 02:20:59;;;;;;;11.93;7.78;;;8.00;78.70;;;;;;7405966;19;20218;-77
2022/04/01 02:23:30;;;;;;;11.68;7.70;;;7.90;78.50;;;;;;7405057;19;20161;-76
2022/04/01 02:26:02;;;;;;;9.38;7.80;;;7.90;79.10;;;;;;7407930;19;20315;-76
2022/04/01 02:28:34;;;;;;;11.93;8.32;;;8.00;78.50;;;;;;7405922;19;21038;-76
2022/04/01 02:31:04;;;;;;;10.30;7.47;;;7.90;77.30;;;;;;7406225;19;20128;-76
2022/04/01 02:33:52;;;;;;;10.90;7.60;;;8.00;77.10;;;;;;7404466;19;20771;-77
2022/04/01 02:36:22;;;;;;;9.95;7.35;;;8.00;78.10;;;;;;7403422;19;20152;-76
2022/04/01 02:38:53;;;;;;;12.10;8.48;;;8.10;77.70;;;;;;7404154;19;20124;-77
2022/04/01 02:41:25;;;;;;;12.50;8.88;;;8.20;78.00;;;;;;7403868;19;20124;-75
2022/04/01 02:44:08;;;;;;;9.15;7.13;;;8.30;78.00;;;;;;7404459;19;20195;-75
2022/04/01 02:46:40;;;;;;;9.65;7.20;;;8.10;77.40;;;;;;7405487;19;20138;-76
2022/04/01 02:49:11;;;;;;;10.93;8.60;;;8.10;77.20;;;;;;7403056;19;20203;-76
2022/04/01 02:51:54;;;;;;;10.32;8.02;;;8.10;77.70;;;;;;7404099;19;20253;-76
2022/04/01 02:54:27;;;;;;;9.65;7.43;;;8.20;77.30;;;;;;7404603;19;20549;-76
2022/04/01 02:57:04;;;;;;;11.32;8.50;;;8.10;75.90;;;;;;7401155;19;20184;-76
2022/04/01 02:59:33;;;;;;;10.32;8.10;;;8.10;77.30;;;;;;7401260;19;20233;-76
2022/04/01 03:02:04;;;;;;;9.73;7.18;;;8.10;77.90;;;;;;7402137;19;20318;-77
2022/04/01 03:04:36;;;;;;;11.45;7.88;;;8.10;77.60;;;;;;7402116;19;20779;-76
2022/04/01 03:07:12;;;;;;;9.68;7.78;;;8.10;77.90;;;;;;7404078;19;20161;-76
2022/04/01 03:09:42;;;;;;;9.52;7.35;;;8.00;75.50;;;;;;7403024;19;20140;-77
2022/04/01 03:12:21;;;;;;;10.93;8.00;;;7.80;76.20;;;;;;7400384;19;20156;-76
2022/04/01 03:14:54;;;;;;;8.85;6.80;;;7.90;76.40;;;;;;7404869;19;20127;-76
2022/04/01 03:17:41;;;;;;;9.07;7.00;;;7.70;76.50;;;;;;7401901;19;20159;-77
2022/04/01 03:20:25;;;;;;;9.73;7.50;;;7.70;77.20;;;;;;7399622;19;20127;-76
2022/04/01 03:22:55;;;;;;;11.65;8.05;;;7.80;76.70;;;;;;7404505;19;20151;-77
2022/04/01 03:25:32;;;;;;;11.63;8.45;;;7.80;77.70;;;;;;7401374;19;20123;-76
2022/04/01 03:28:22;;;;;;;10.23;8.20;;;7.70;77.10;;;;;;7403315;19;20164;-77
2022/04/01 03:30:59;;;;;;;11.73;7.68;;;7.70;77.00;;;;;;7402079;19;20492;-76
2022/04/01 03:33:35;;;;;;;10.25;7.85;;;7.50;78.30;;;;;;7400176;19;20170;-76
2022/04/01 03:36:08;;;;;;;10.10;7.88;;;7.40;79.20;;;;;;7401539;19;20135;-75
2022/04/01 03:38:42;;;;;;;10.27;7.93;;;7.30;79.10;;;;;;7401404;19;20154;-76
2022/04/01 03:41:19;;;;;;;12.23;8.90;;;7.20;79.40;;;;;;7403593;19;20233;-76
2022/04/01 03:43:56;;;;;;;13.55;8.07;;;7.30;80.80;;;;;;7398335;19;20136;-76
2022/04/01 03:46:40;;;;;;;9.10;7.25;;;7.40;81.00;;;;;;7399298;19;20133;-76
2022/04/01 03:49:21;;;;;;;9.63;7.60;;;7.50;80.60;;;;;;7399320;19;20227;-76
2022/04/01 03:51:54;;;;;;;11.40;8.18;;;7.60;80.50;;;;;;7401194;19;20156;-76
2022/04/01 03:54:26;;;;;;;10.98;7.55;;;7.70;80.40;;;;;;7397871;19;20139;-77
2022/04/01 03:57:18;;;;;;;10.25;7.30;;;7.80;78.60;;;;;;7397519;19;20277;-75
2022/04/01 04:00:13;;;;;;;13.15;9.15;;;7.50;79.30;;;;;;7396031;19;20152;-76
2022/04/01 04:02:44;;;;;;;9.70;7.40;;;7.50;80.00;;;;;;7401030;19;20410;-75
2022/04/01 04:05:20;;;;;;;12.00;8.48;;;7.60;80.80;;;;;;7391997;19;20151;-76
2022/04/01 04:07:51;;;;;;;10.90;8.00;;;7.60;81.20;;;;;;7401227;19;20363;-76
2022/04/01 04:10:27;;;;;;;10.50;8.32;;;7.70;80.60;;;;;;7394546;19;20152;-75
2022/04/01 04:13:21;;;;;;;14.02;9.25;;;7.70;79.20;;;;;;7396966;19;20355;-75
2022/04/01 04:16:08;;;;;;;11.43;8.05;;;7.50;79.10;;;;;;7387039;19;20150;-71
2022/04/01 04:18:45;;;;;;;12.45;8.70;;;7.40;80.50;;;;;;7399166;19;20286;-76
2022/04/01 04:21:24;;;;;;;12.95;9.35;;;7.60;80.60;;;;;;7394625;19;20132;-76
2022/04/01 04:23:58;;;;;;;13.48;9.55;;;7.60;80.10;;;;;;7397117;19;20135;-76
2022/04/01 04:26:35;;;;;;;13.80;9.27;;;7.50;79.50;;;;;;7397563;19;20143;-74
2022/04/01 04:29:11;;;;;;;13.45;9.88;;;7.50;80.80;;;;;;7396073;19;20136;-75
2022/04/01 04:32:08;;;;;;;13.27;9.05;;;7.70;80.40;;;;;;7399435;19;20333;-74
2022/04/01 04:34:40;;;;;;;12.65;8.85;;;7.70;79.80;;;;;;7396880;19;20123;-76
2022/04/01 04:37:15;;;;;;;13.60;9.00;;;7.70;79.60;;;;;;7397072;19;20161;-76
2022/04/01 04:39:52;;;;;;;12.32;8.00;;;7.70;79.10;;;;;;7397881;19;20139;-77
2022/04/01 04:42:34;;;;;;;10.90;7.70;;;7.70;79.80;;;;;;7394552;19;20140;-75
2022/04/01 04:45:06;;;;;;;11.73;8.00;;;7.70;79.50;;;;;;7396828;19;20155;-76
2022/04/01 04:47:45;;;;;;;10.82;7.72;;;7.70;78.40;;;;;;7394908;19;20191;-76
2022/04/01 04:50:15;;;;;;;12.68;8.90;;;7.80;77.90;;;;;;7392938;19;20521;-76
2022/04/01 04:52:50;;;;;;;10.90;8.10;;;7.70;79.30;;;;;;7395741;19;20132;-75
2022/04/01 04:55:21;;;;;;;12.13;7.60;;;7.60;78.70;;;;;;7393047;19;20140;-76
2022/04/01 04:58:10;;;;;;;10.02;6.70;;;7.70;79.10;;;;;;7396759;19;20124;-75
2022/04/01 05:00:48;;;;;;;10.35;7.13;;;7.60;78.40;;;;;;7394721;19;20215;-76
2022/04/01 05:03:44;;;;;;;12.18;6.75;;;7.50;79.30;;;;;;7397472;19;20119;-73
2022/04/01 05:06:24;;;;;;;9.30;7.03;;;7.40;79.10;;;;;;7394108;19;20437;-73
2022/04/01 05:09:19;;;;;;;10.30;7.05;;;7.30;78.70;;;;;;7397701;19;20148;-74
2022/04/01 05:12:32;;;;;;;9.68;7.32;;;7.40;79.50;;;;;;7391775;19;20170;-73
2022/04/01 05:15:22;;;;;;;8.27;6.32;;;7.50;79.40;;;;;;7388690;19;20832;-74
2022/04/01 05:17:56;;;;;;;8.20;6.53;;;7.40;79.00;;;;;;7392502;19;20139;-74
2022/04/01 05:20:38;;;;;;;11.70;8.27;;;7.50;80.00;;;;;;7390599;19;20129;-73
2022/04/01 05:23:15;;;;;;;14.07;9.68;;;7.50;78.70;;;;;;7396243;19;20165;-73
2022/04/01 05:25:52;;;;;;;26.42;17.77;;;7.40;78.40;;;;;;7389884;19;20134;-73
2022/04/01 05:28:48;;;;;;;14.93;9.75;;;7.40;79.50;;;;;;7393078;19;20190;-73
2022/04/01 05:31:25;;;;;;;10.68;8.00;;;7.50;79.70;;;;;;7389469;19;20271;-73
2022/04/01 05:34:08;;;;;;;13.02;9.90;;;7.40;77.70;;;;;;7395813;19;20124;-73
2022/04/01 05:36:40;;;;;;;12.40;7.45;;;7.40;79.80;;;;;;7390259;19;20646;-73
2022/04/01 05:39:15;;;;;;;10.95;7.47;;;7.50;77.90;;;;;;7398605;19;20405;-73
2022/04/01 05:41:49;;;;;;;10.52;7.60;;;7.40;76.60;;;;;;7391603;19;20132;-73
2022/04/01 05:44:22;;;;;;;10.68;8.05;;;7.30;76.40;;;;;;7396997;19;20150;-72
2022/04/01 05:46:53;;;;;;;10.45;7.32;;;7.30;76.90;;;;;;7394301;19;20135;-72
2022/04/01 05:49:25;;;;;;;9.13;7.38;;;7.30;77.80;;;;;;7391736;19;20128;-72
2022/04/01 05:51:59;;;;;;;10.90;7.55;;;7.30;76.90;;;;;;7386233;19;21077;-73
2022/04/01 05:54:29;;;;;;;8.98;6.50;;;7.40;77.30;;;;;;7396648;19;20136;-74
2022/04/01 05:57:02;;;;;;;9.57;7.07;;;7.20;76.20;;;;;;7398874;19;20206;-75
2022/04/01 05:59:32;;;;;;;10.45;7.35;;;7.10;77.10;;;;;;7398839;19;20124;-76
2022/04/01 06:02:23;;;;;;;11.60;7.15;;;7.10;77.50;;;;;;7395347;19;20136;-73
2022/04/01 06:05:10;;;;;;;10.07;7.40;;;7.10;77.80;;;;;;7393418;19;20151;-76
2022/04/01 06:07:52;;;;;;;11.70;7.03;;;7.10;76.70;;;;;;7391788;19;20127;-76
2022/04/01 06:10:29;;;;;;;10.73;8.05;;;7.00;78.50;;;;;;7383384;19;20135;-71
2022/04/01 06:13:30;;;;;;;14.70;9.70;;;7.00;78.30;;;;;;7398390;19;20148;-71
2022/04/01 06:16:25;;;;;;;16.20;10.15;;;7.00;77.70;;;;;;7379421;19;20151;-71
2022/04/01 06:19:13;;;;;;;11.18;7.68;;;6.90;79.00;;;;;;7395559;19;20136;-72
2022/04/01 06:21:48;;;;;;;11.88;8.38;;;6.60;77.90;;;;;;7396358;19;20615;-73
2022/04/01 06:24:33;;;;;;;10.75;7.97;;;6.80;78.10;;;;;;7400315;19;20576;-73
2022/04/01 06:27:03;;;;;;;9.40;6.82;;;6.90;77.40;;;;;;7401667;19;20321;-73
2022/04/01 06:29:46;;;;;;;9.20;6.72;;;6.80;77.20;;;;;;7398277;19;20130;-73
2022/04/01 06:32:27;;;;;;;10.23;8.50;;;6.90;77.70;;;;;;7392207;19;20494;-75
2022/04/01 06:35:07;;;;;;;10.27;7.78;;;6.70;77.10;;;;;;7401709;19;20203;-76
2022/04/01 06:38:00;;;;;;;10.23;7.32;;;6.50;77.90;;;;;;7392446;19;20148;-73
2022/04/01 06:40:43;;;;;;;11.60;8.13;;;6.40;78.70;;;;;;7400287;19;20134;-74
2022/04/01 06:43:13;;;;;;;13.60;8.48;;;6.30;78.80;;;;;;7395431;19;20301;-73
2022/04/01 06:46:05;;;;;;;12.75;8.55;;;6.30;80.00;;;;;;7402116;19;20132;-74
2022/04/01 06:48:47;;;;;;;13.25;8.30;;;6.30;80.20;;;;;;7401853;19;20215;-74
2022/04/01 06:51:39;;;;;;;12.13;8.50;;;6.40;80.20;;;;;;7392561;19;20128;-73
2022/04/01 06:54:29;;;;;;;12.45;8.57;;;6.50;80.00;;;;;;7396043;19;20148;-74
2022/04/01 06:57:19;;;;;;;12.00;9.23;;;6.50;79.00;;;;;;7395149;19;20162;-75
2022/04/01 07:00:08;;;;;;;10.80;8.90;;;6.40;79.10;;;;;;7398836;19;20139;-73
2022/04/01 07:02:58;;;;;;;11.70;8.30;;;6.10;79.90;;;;;;7400051;19;20272;-75
2022/04/01 07:05:28;;;;;;;13.90;10.63;;;6.00;81.20;;;;;;7391312;19;20130;-75
2022/04/01 07:07:59;;;;;;;11.65;8.73;;;6.20;82.50;;;;;;7397807;19;20295;-75
2022/04/01 07:10:33;;;;;;;14.65;8.55;;;6.30;81.40;;;;;;7398359;19;20242;-76
2022/04/01 07:13:06;;;;;;;13.60;10.02;;;6.40;80.90;;;;;;7398885;19;20162;-75
2022/04/01 07:15:35;;;;;;;13.93;9.85;;;6.40;79.60;;;;;;7392852;19;20139;-74
2022/04/01 07:18:06;;;;;;;15.20;9.93;;;6.40;80.50;;;;;;7393455;19;20124;-75
2022/04/01 07:20:38;;;;;;;12.55;9.82;;;6.50;80.30;;;;;;7380619;19;20124;-73
2022/04/01 07:23:10;;;;;;;13.30;9.43;;;6.50;79.10;;;;;;7394694;19;20185;-74
2022/04/01 07:25:40;;;;;;;12.73;9.10;;;6.40;79.40;;;;;;7396178;19;20130;-74
2022/04/01 07:28:12;;;;;;;14.32;9.80;;;6.40;79.00;;;;;;7395977;19;20127;-75
2022/04/01 07:30:44;;;;;;;13.38;8.95;;;6.40;78.90;;;;;;7386282;19;20326;-74
2022/04/01 07:33:14;;;;;;;12.95;8.93;;;6.20;80.00;;;;;;7391264;19;20131;-74
2022/04/01 07:35:44;;;;;;;16.05;10.30;;;6.20;79.90;;;;;;7388705;19;20315;-73
2022/04/01 07:38:13;;;;;;;13.10;9.32;;;6.20;80.50;;;;;;7386366;19;20135;-73
2022/04/01 07:40:44;;;;;;;12.75;9.30;;;6.30;81.30;;;;;;7377353;19;20144;-73
2022/04/01 07:43:33;;;;;;;14.52;9.55;;;6.20;79.70;;;;;;7382654;19;20225;-78
2022/04/01 07:46:06;;;;;;;10.15;8.45;;;6.40;80.40;;;;;;7399235;19;20212;-77
2022/04/01 07:48:38;;;;;;;12.60;9.75;;;6.60;80.00;;;;;;7396500;19;20147;-77
2022/04/01 07:51:07;;;;;;;11.73;9.00;;;6.80;79.00;;;;;;7393239;19;20155;-77
2022/04/01 07:53:39;;;;;;;11.43;9.35;;;6.80;77.30;;;;;;7390298;19;20300;-77
2022/04/01 07:56:11;;;;;;;13.48;9.30;;;6.70;77.50;;;;;;7385435;19;20540;-77
2022/04/01 07:58:43;;;;;;;12.40;8.57;;;6.80;77.60;;;;;;7385289;19;20124;-76
2022/04/01 08:01:12;;;;;;;11.50;9.05;;;6.80;77.50;;;;;;7393982;19;20138;-74
2022/04/01 08:03:45;;;;;;;13.32;9.98;;;7.00;77.40;;;;;;7392942;19;20131;-74
2022/04/01 08:06:17;;;;;;;16.27;9.82;;;7.00;76.20;;;;;;7389984;19;20135;-74
2022/04/01 08:08:48;;;;;;;11.77;9.02;;;7.10;76.70;;;;;;7395138;19;20146;-75
2022/04/01 08:11:20;;;;;;;12.63;9.07;;;7.20;75.80;;;;;;7390134;19;20166;-75
2022/04/01 08:13:53;;;;;;;12.55;9.38;;;7.10;75.60;;;;;;7384321;19;20128;-76
2022/04/01 08:16:22;;;;;;;14.85;10.52;;;7.10;76.30;;;;;;7391504;19;20139;-76
2022/04/01 08:18:52;;;;;;;13.68;10.02;;;7.10;75.70;;;;;;7390235;19;20128;-75
2022/04/01 08:21:21;;;;;;;13.38;9.48;;;7.10;76.00;;;;;;7380236;19;20127;-75
2022/04/01 08:23:53;;;;;;;17.48;12.23;;;7.00;75.30;;;;;;7398088;19;20216;-75
2022/04/01 08:26:28;;;;;;;12.32;9.05;;;7.00;76.70;;;;;;7391487;19;20131;-75
2022/04/01 08:29:00;;;;;;;12.43;9.40;;;7.00;76.60;;;;;;7381874;19;20211;-75
2022/04/01 08:31:37;;;;;;;13.13;8.70;;;6.90;76.20;;;;;;7380112;19;20134;-74
2022/04/01 08:34:07;;;;;;;13.82;10.20;;;7.00;77.00;;;;;;7381291;19;20135;-74
2022/04/01 08:36:41;;;;;;;11.57;8.70;;;7.00;77.20;;;;;;7384072;19;20130;-75
2022/04/01 08:39:11;;;;;;;13.00;9.05;;;7.00;76.10;;;;;;7394920;19;20139;-74
2022/04/01 08:41:43;;;;;;;10.05;7.82;;;7.00;75.50;;;;;;7392409;19;20145;-73
2022/04/01 08:44:18;;;;;;;10.75;8.32;;;7.10;76.70;;;;;;7389007;19;20167;-73
2022/04/01 08:46:50;;;;;;;12.20;9.55;;;6.80;76.00;;;;;;7381850;19;20625;-73
2022/04/01 08:49:20;;;;;;;10.43;8.23;;;6.90;76.90;;;;;;7389921;19;20739;-73
2022/04/01 08:51:50;;;;;;;11.48;8.90;;;7.00;77.60;;;;;;7386377;19;20128;-74
2022/04/01 08:54:20;;;;;;;11.88;9.43;;;7.10;75.60;;;;;;7393117;19;20131;-77
2022/04/01 08:56:51;;;;;;;11.25;9.45;;;7.10;74.90;;;;;;7379424;19;20170;-80
2022/04/01 08:59:29;;;;;;;9.45;7.85;;;7.00;76.10;;;;;;7390475;19;20123;-78
2022/04/01 09:02:06;;;;;;;10.07;7.93;;;6.90;75.40;;;;;;7384192;19;20140;-79
2022/04/01 09:04:36;;;;;;;10.50;9.00;;;6.90;75.80;;;;;;7391229;19;20124;-76
2022/04/01 09:07:13;;;;;;;14.70;8.95;;;7.00;76.90;;;;;;7390534;19;20247;-77
2022/04/01 09:09:45;;;;;;;11.15;8.20;;;7.10;76.20;;;;;;7379779;19;20124;-72
2022/04/01 09:12:17;;;;;;;9.23;8.02;;;6.80;75.00;;;;;;7390617;19;20211;-72
2022/04/01 09:14:57;;;;;;;10.60;8.43;;;6.70;77.10;;;;;;7389194;19;20159;-71
2022/04/01 09:17:43;;;;;;;9.18;6.53;;;6.70;76.90;;;;;;7385964;19;20142;-71
2022/04/01 09:20:16;;;;;;;9.05;6.85;;;6.80;75.90;;;;;;7387019;19;20217;-71
2022/04/01 09:22:48;;;;;;;8.23;6.88;;;6.90;77.20;;;;;;7389277;19;20136;-71
2022/04/01 09:25:21;;;;;;;9.85;7.65;;;7.00;75.90;;;;;;7389265;19;21040;-71
2022/04/01 09:27:53;;;;;;;9.70;7.45;;;6.90;76.30;;;;;;7398651;19;20138;-71
2022/04/01 09:30:34;;;;;;;9.65;7.82;;;6.90;76.50;;;;;;7397446;19;20147;-71
2022/04/01 09:33:05;;;;;;;8.63;6.85;;;7.10;77.00;;;;;;7400211;19;20120;-72
2022/04/01 09:35:38;;;;;;;13.15;7.80;;;7.10;76.00;;;;;;7401460;19;20658;-71
2022/04/01 09:38:09;;;;;;;9.60;7.10;;;6.90;74.60;;;;;;7403192;19;20139;-71
2022/04/01 09:40:39;;;;;;;10.13;7.65;;;6.90;77.20;;;;;;7403759;19;20132;-71
2022/04/01 09:43:10;;;;;;;8.75;6.80;;;6.80;75.10;;;;;;7401585;19;20139;-71
2022/04/01 09:45:42;;;;;;;8.27;6.50;;;6.80;74.70;;;;;;7399726;19;20131;-71
2022/04/01 09:48:13;;;;;;;9.05;7.70;;;6.80;75.80;;;;;;7402985;19;20175;-71
2022/04/01 09:50:45;;;;;;;10.05;7.90;;;7.00;76.00;;;;;;7397277;19;20625;-72
2022/04/01 09:53:17;;;;;;;12.85;8.40;;;7.00;75.30;;;;;;7403704;19;20283;-71
2022/04/01 09:55:50;;;;;;;9.32;7.80;;;7.10;75.30;;;;;;7398003;19;20160;-71
2022/04/01 09:58:24;;;;;;;8.27;7.25;;;7.00;73.90;;;;;;7401556;19;20140;-71
2022/04/01 10:00:59;;;;;;;9.50;7.40;;;6.90;74.20;;;;;;7401374;19;20161;-71
2022/04/01 10:03:29;;;;;;;8.63;5.93;;;6.90;75.90;;;;;;7397146;19;20131;-71
2022/04/01 10:05:59;;;;;;;7.90;6.95;;;6.90;75.90;;;;;;7395506;19;20158;-71
2022/04/01 10:08:29;;;;;;;9.10;6.68;;;7.00;75.80;;;;;;7394339;19;20822;-71
2022/04/01 10:11:00;;;;;;;7.55;6.50;;;7.20;75.90;;;;;;7399145;19;20176;-72
2022/04/01 10:13:33;;;;;;;7.20;5.70;;;7.10;74.10;;;;;;7400953;19;20155;-71
2022/04/01 10:16:06;;;;;;;6.65;5.40;;;7.20;74.00;;;;;;7400504;19;20132;-71
2022/04/01 10:18:42;;;;;;;40.67;7.95;;;7.30;73.30;;;;;;7395488;19;20187;-71
2022/04/01 10:21:13;;;;;;;36.15;8.60;;;7.10;72.20;;;;;;7401752;19;20359;-71
2022/04/01 10:23:52;;;;;;;4.80;4.18;;;7.00;74.60;;;;;;7404322;19;20191;-74
2022/04/01 10:26:25;;;;;;;7.55;4.15;;;7.00;74.40;;;;;;7402186;19;20355;-72
2022/04/01 10:28:55;;;;;;;5.47;4.80;;;7.10;74.40;;;;;;7395351;19;20136;-71
2022/04/01 10:31:30;;;;;;;5.38;4.40;;;7.00;74.10;;;;;;7394360;19;20128;-72
2022/04/01 10:34:24;;;;;;;6.35;5.03;;;7.00;73.90;;;;;;7395525;19;20199;-71
2022/04/01 10:37:17;;;;;;;7.90;4.75;;;7.10;74.80;;;;;;7398838;19;20123;-73
2022/04/01 10:39:52;;;;;;;5.80;4.55;;;7.20;72.90;;;;;;7398784;19;20131;-72
2022/04/01 10:42:26;;;;;;;4.80;4.30;;;7.20;73.90;;;;;;7396054;19;20126;-71
2022/04/01 10:44:57;;;;;;;32.20;8.35;;;7.20;73.50;;;;;;7392291;19;20342;-72
2022/04/01 10:53:39;;;;;;;3.60;3.15;;;7.20;73.60;;;;;;7399792;19;20143;-72
2022/04/01 10:56:39;;;;;;;4.28;3.05;;;7.00;72.50;;;;;;7397615;19;20203;-72
2022/04/01 10:59:16;;;;;;;3.33;2.78;;;7.00;73.30;;;;;;7397990;19;20135;-72
2022/04/01 11:02:07;;;;;;;3.42;3.03;;;6.90;73.20;;;;;;7401452;19;20159;-71
2022/04/01 11:04:44;;;;;;;4.40;3.45;;;7.00;73.20;;;;;;7398978;19;20124;-72
2022/04/01 11:07:16;;;;;;;4.97;4.05;;;7.10;73.70;;;;;;7393346;19;20135;-71
2022/04/01 11:09:50;;;;;;;6.88;5.05;;;7.10;73.60;;;;;;7400460;19;20195;-72
2022/04/01 11:12:36;;;;;;;4.90;3.58;;;7.20;74.70;;;;;;7396625;19;20147;-72
2022/04/01 11:15:29;;;;;;;4.15;3.50;;;7.30;74.50;;;;;;7400010;19;20136;-72
2022/04/01 11:18:10;;;;;;;4.05;2.92;;;7.30;72.60;;;;;;7392375;19;20136;-72
2022/04/01 11:20:59;;;;;;;6.07;4.50;;;7.20;72.00;;;;;;7399817;19;20191;-72
2022/04/01 11:23:31;;;;;;;5.20;3.60;;;7.00;72.50;;;;;;7398951;19;20132;-71
2022/04/01 11:26:00;;;;;;;3.75;3.00;;;6.80;74.90;;;;;;7398017;19;20147;-72
2022/04/01 11:28:41;;;;;;;5.53;3.90;;;6.70;75.10;;;;;;7398732;19;20140;-72
2022/04/01 11:31:18;;;;;;;2.97;2.70;;;6.90;75.60;;;;;;7398623;19;20326;-72
2022/04/01 11:34:01;;;;;;;3.63;2.55;;;6.90;75.80;;;;;;7393347;19;20148;-71
2022/04/01 11:37:02;;;;;;;3.03;2.72;;;6.90;73.30;;;;;;7398424;19;20143;-71
2022/04/01 11:39:33;;;;;;;4.80;3.55;;;6.80;74.20;;;;;;7392967;19;20128;-71
2022/04/01 11:42:03;;;;;;;4.22;3.63;;;6.70;73.90;;;;;;7392900;19;20641;-72
2022/04/01 11:44:34;;;;;;;3.45;3.15;;;6.80;76.00;;;;;;7395884;19;20166;-71
2022/04/01 11:47:14;;;;;;;3.20;2.90;;;6.90;73.50;;;;;;7396682;19;20134;-72
2022/04/01 11:49:44;;;;;;;3.67;3.33;;;7.00;74.70;;;;;;7393300;19;20138;-72
2022/04/01 11:52:16;;;;;;;3.50;3.20;;;7.10;75.30;;;;;;7391023;19;20227;-72
2022/04/01 11:54:49;;;;;;;2.60;2.40;;;7.10;72.10;;;;;;7396364;19;20218;-71
2022/04/01 11:57:21;;;;;;;3.78;3.40;;;7.00;71.90;;;;;;7395924;19;20155;-71
2022/04/01 11:59:51;;;;;;;3.00;2.80;;;6.90;72.40;;;;;;7385793;19;20120;-71
2022/04/01 12:02:23;;;;;;;2.90;2.70;;;6.80;72.70;;;;;;7384354;19;20128;-71
2022/04/01 12:04:52;;;;;;;5.78;3.75;;;6.70;73.20;;;;;;7392447;19;20166;-72
2022/04/01 12:10:20;;;;;;;3.80;3.50;;;6.60;74.30;;;;;;7394472;19;20870;-72
2022/04/01 12:12:58;;;;;;;3.00;2.70;;;6.60;74.90;;;;;;7398705;19;20131;-72
2022/04/01 12:15:35;;;;;;;3.35;3.05;;;6.80;74.50;;;;;;7393112;19;20138;-72
2022/04/01 12:18:10;;;;;;;3.75;3.22;;;6.90;74.40;;;;;;7396524;19;20195;-71
2022/04/01 12:20:41;;;;;;;3.65;3.35;;;7.10;74.10;;;;;;7390911;19;20135;-72
2022/04/01 12:23:17;;;;;;;6.88;3.58;;;7.10;74.10;;;;;;7394559;19;20303;-76
2022/04/01 12:25:52;;;;;;;4.13;3.83;;;7.00;72.60;;;;;;7396666;19;20124;-74
2022/04/01 12:28:29;;;;;;;9.02;5.60;;;7.00;73.40;;;;;;7391442;19;20143;-72
2022/04/01 12:30:59;;;;;;;4.50;4.07;;;7.10;71.20;;;;;;7392653;19;20129;-73
2022/04/01 12:33:35;;;;;;;5.38;4.25;;;7.00;70.50;;;;;;7387796;19;20203;-74
2022/04/01 12:36:06;;;;;;;4.35;3.85;;;7.00;72.10;;;;;;7386278;19;20119;-75
2022/04/01 12:39:06;;;;;;;4.97;4.47;;;7.10;72.90;;;;;;7394532;19;20418;-74
2022/04/01 12:41:52;;;;;;;6.50;4.47;;;7.10;72.80;;;;;;7382873;19;20171;-74
2022/04/01 12:44:26;;;;;;;4.72;4.30;;;7.10;73.00;;;;;;7391638;19;20681;-75
2022/04/01 12:46:59;;;;;;;4.75;4.35;;;7.20;72.50;;;;;;7382537;19;20231;-73
2022/04/01 12:49:32;;;;;;;5.15;4.75;;;7.30;71.00;;;;;;7391320;19;20143;-75
2022/04/01 12:52:04;;;;;;;5.32;4.45;;;7.30;71.80;;;;;;7367729;19;20135;-73
2022/04/01 12:54:40;;;;;;;4.47;4.07;;;7.20;70.40;;;;;;7374051;19;20143;-73
2022/04/01 12:57:12;;;;;;;5.38;4.80;;;7.20;72.50;;;;;;7369599;19;20168;-73
2022/04/01 12:59:48;;;;;;;5.28;4.70;;;7.30;73.30;;;;;;7375711;19;20172;-73
2022/04/01 13:02:21;;;;;;;5.00;4.18;;;7.40;72.00;;;;;;7372691;19;20125;-74
2022/04/01 13:04:55;;;;;;;4.97;4.53;;;7.20;70.70;;;;;;7377709;19;20131;-73
2022/04/01 13:07:32;;;;;;;7.68;5.43;;;6.90;71.10;;;;;;7378627;19;20151;-73
2022/04/01 13:10:17;;;;;;;5.82;5.22;;;6.80;71.50;;;;;;7377203;19;20139;-73
2022/04/01 13:12:55;;;;;;;4.80;4.25;;;6.60;72.20;;;;;;7381233;19;20139;-73
2022/04/01 13:15:29;;;;;;;8.32;5.25;;;6.50;75.00;;;;;;7379701;19;20151;-73
2022/04/01 13:18:02;;;;;;;4.80;4.40;;;6.60;76.20;;;;;;7352532;19;20202;-73
2022/04/01 13:20:35;;;;;;;8.07;5.60;;;6.80;75.60;;;;;;7380597;19;20139;-73
2022/04/01 13:23:06;;;;;;;5.80;5.05;;;6.80;74.30;;;;;;7380770;19;20136;-73
2022/04/01 13:25:39;;;;;;;7.18;5.82;;;6.90;73.10;;;;;;7383181;19;20138;-74
2022/04/01 13:28:11;;;;;;;5.85;5.25;;;7.10;72.00;;;;;;7377611;19;20151;-74
2022/04/01 13:30:41;;;;;;;6.97;6.28;;;7.00;69.90;;;;;;7379608;19;20215;-74
2022/04/01 13:33:15;;;;;;;6.15;5.43;;;6.80;72.70;;;;;;7375733;19;20136;-73
2022/04/01 13:35:45;;;;;;;7.10;5.82;;;6.70;70.80;;;;;;7379858;19;20139;-73
2022/04/01 13:38:14;;;;;;;7.93;6.47;;;6.50;73.10;;;;;;7377713;19;20140;-73
2022/04/01 13:41:07;;;;;;;6.63;5.93;;;6.70;73.20;;;;;;7377753;19;20180;-73
2022/04/01 13:43:36;;;;;;;6.43;5.45;;;6.50;73.10;;;;;;7376634;19;20140;-72
2022/04/01 13:46:07;;;;;;;6.57;5.43;;;6.60;73.40;;;;;;7376504;19;20199;-73
2022/04/01 13:48:38;;;;;;;7.35;6.20;;;6.50;74.50;;;;;;7376569;19;20506;-73